createdAt,value
2018-09-09T00:00:49.904Z,101879.47
2018-09-09T00:03:18.173Z,101877.95
2018-09-09T00:05:46.433Z,101882.05
2018-09-09T00:08:14.719Z,101876.77
2018-09-09T00:10:43.044Z,101887.66
2018-09-09T00:13:11.288Z,101884.61
2018-09-09T00:15:39.521Z,101881.82
2018-09-09T00:18:07.797Z,101880.02
2018-09-09T00:20:36.057Z,101882.86
2018-09-09T00:23:04.353Z,101888.96
2018-09-09T00:25:32.798Z,101891.94
2018-09-09T00:28:01.093Z,101894.33
2018-09-09T00:30:29.345Z,101890.03
2018-09-09T00:32:57.658Z,101890.23
2018-09-09T00:35:25.905Z,101891.56
2018-09-09T00:37:54.177Z,101891.41
2018-09-09T00:40:22.421Z,101890.67
2018-09-09T00:42:50.713Z,101890.87
2018-09-09T00:45:18.989Z,101896.45
2018-09-09T00:47:47.277Z,101885.73
2018-09-09T00:50:20.849Z,101892.11
2018-09-09T00:52:54.507Z,101881.63
2018-09-09T00:55:22.751Z,101890.36
2018-09-09T00:57:51.066Z,101885.98
2018-09-09T01:00:26.470Z,101883.91
2018-09-09T01:02:54.866Z,101881.53
2018-09-09T01:05:23.133Z,101882.02
2018-09-09T01:07:51.461Z,101885.69
2018-09-09T01:10:19.717Z,101882.30
2018-09-09T01:12:47.973Z,101878.58
2018-09-09T01:15:16.248Z,101879.15
2018-09-09T01:17:44.509Z,101878.88
2018-09-09T01:20:12.798Z,101871.09
2018-09-09T01:22:41.059Z,101880.35
2018-09-09T01:25:09.335Z,101880.59
2018-09-09T01:27:37.585Z,101881.73
2018-09-09T01:30:05.912Z,101876.66
2018-09-09T01:32:34.152Z,101879.80
2018-09-09T01:35:02.423Z,101880.82
2018-09-09T01:37:30.673Z,101881.53
2018-09-09T01:39:58.949Z,101882.07
2018-09-09T01:42:27.208Z,101868.30
2018-09-09T01:44:55.476Z,101875.48
2018-09-09T01:47:23.723Z,101874.75
2018-09-09T01:49:52.185Z,101874.60
2018-09-09T01:52:20.422Z,101873.19
2018-09-09T01:54:49.695Z,101869.47
2018-09-09T01:57:17.975Z,101868.61
2018-09-09T01:59:46.245Z,101871.77
2018-09-09T02:02:14.532Z,101871.66
2018-09-09T02:04:42.788Z,101872.73
2018-09-09T02:07:11.064Z,101873.27
2018-09-09T02:09:39.313Z,101877.33
2018-09-09T02:12:07.591Z,101872.29
2018-09-09T02:14:35.836Z,101867.11
2018-09-09T02:17:04.141Z,101870.66
2018-09-09T02:19:32.409Z,101868.16
2018-09-09T02:22:00.753Z,101863.05
2018-09-09T02:24:29.242Z,101862.25
2018-09-09T02:26:57.561Z,101861.13
2018-09-09T02:29:25.816Z,101861.73
2018-09-09T02:31:54.097Z,101869.30
2018-09-09T02:34:22.371Z,101865.69
2018-09-09T02:36:50.688Z,101856.38
2018-09-09T02:39:18.944Z,101860.34
2018-09-09T02:41:47.286Z,101851.41
2018-09-09T02:44:15.626Z,101855.40
2018-09-09T02:46:43.881Z,101849.60
2018-09-09T02:49:12.179Z,101855.12
2018-09-09T02:51:41.525Z,101859.52
2018-09-09T02:54:09.817Z,101859.20
2018-09-09T02:56:38.091Z,101851.70
2018-09-09T02:59:06.389Z,101853.25
2018-09-09T03:01:34.700Z,101850.64
2018-09-09T03:04:02.986Z,101838.85
2018-09-09T03:06:31.279Z,101846.74
2018-09-09T03:08:59.573Z,101847.01
2018-09-09T03:11:27.841Z,101847.38
2018-09-09T03:13:56.181Z,101859.39
2018-09-09T03:16:24.449Z,101857.48
2018-09-09T03:18:52.801Z,101854.49
2018-09-09T03:21:21.190Z,101857.83
2018-09-09T03:23:49.485Z,101852.63
2018-09-09T03:26:17.738Z,101853.53
2018-09-09T03:28:46.098Z,101852.90
2018-09-09T03:31:14.393Z,101850.08
2018-09-09T03:33:42.693Z,101855.44
2018-09-09T03:36:10.947Z,101856.33
2018-09-09T03:38:39.265Z,101858.19
2018-09-09T03:41:08.545Z,101851.94
2018-09-09T03:43:36.817Z,101855.03
2018-09-09T03:46:05.226Z,101861.89
2018-09-09T03:48:33.493Z,101861.19
2018-09-09T03:51:02.885Z,101863.59
2018-09-09T03:53:31.175Z,101858.06
2018-09-09T03:55:59.469Z,101864.02
2018-09-09T03:58:27.732Z,101865.09
2018-09-09T04:00:56.064Z,101857.17
2018-09-09T04:03:24.358Z,101859.98
2018-09-09T04:05:52.689Z,101861.23
2018-09-09T04:08:20.973Z,101869.30
2018-09-09T04:10:49.316Z,101864.63
2018-09-09T04:13:17.593Z,101865.33
2018-09-09T04:15:45.893Z,101870.45
2018-09-09T04:18:15.272Z,101866.80
2018-09-09T04:20:43.637Z,101875.33
2018-09-09T04:23:11.907Z,101874.91
2018-09-09T04:25:40.217Z,101878.62
2018-09-09T04:28:08.481Z,101869.08
2018-09-09T04:30:36.761Z,101870.89
2018-09-09T04:33:05.061Z,101874.52
2018-09-09T04:35:33.321Z,101867.33
2018-09-09T04:38:01.616Z,101877.50
2018-09-09T04:40:29.929Z,101879.20
2018-09-09T04:42:58.267Z,101878.81
2018-09-09T04:45:26.529Z,101886.01
2018-09-09T04:47:54.820Z,101887.89
2018-09-09T04:50:24.001Z,101888.30
2018-09-09T04:52:52.293Z,101891.57
2018-09-09T04:55:20.567Z,101893.41
2018-09-09T04:57:49.941Z,101896.50
2018-09-09T05:00:18.231Z,101898.00
2018-09-09T05:02:46.573Z,101900.22
2018-09-09T05:05:14.929Z,101904.64
2018-09-09T05:07:43.225Z,101902.55
2018-09-09T05:10:11.544Z,101907.97
2018-09-09T05:12:40.137Z,101904.67
2018-09-09T05:15:08.405Z,101908.11
2018-09-09T05:17:36.720Z,101910.50
2018-09-09T05:20:05.230Z,101910.95
2018-09-09T05:22:33.641Z,101913.75
2018-09-09T05:25:01.918Z,101908.28
2018-09-09T05:27:30.400Z,101911.45
2018-09-09T05:29:58.702Z,101910.60
2018-09-09T05:32:27.004Z,101914.04
2018-09-09T05:34:55.553Z,101919.30
2018-09-09T05:37:23.838Z,101921.05
2018-09-09T05:39:52.136Z,101923.70
2018-09-09T05:42:20.452Z,101919.55
2018-09-09T05:44:48.780Z,101916.02
2018-09-09T05:47:18.015Z,101919.36
2018-09-09T05:49:47.313Z,101912.59
2018-09-09T05:52:15.589Z,101913.25
2018-09-09T05:54:43.905Z,101914.05
2018-09-09T05:57:12.181Z,101908.84
2018-09-09T05:59:40.504Z,101911.06
2018-09-09T06:02:09.895Z,101907.38
2018-09-09T06:04:38.192Z,101911.00
2018-09-09T06:07:06.797Z,101908.84
2018-09-09T06:09:35.097Z,101917.13
2018-09-09T06:12:03.410Z,101908.80
2018-09-09T06:14:31.796Z,101912.23
2018-09-09T06:17:00.098Z,101910.22
2018-09-09T06:19:28.408Z,101912.56
2018-09-09T06:21:56.729Z,101917.13
2018-09-09T06:24:25.035Z,101917.81
2018-09-09T06:26:53.329Z,101913.02
2018-09-09T06:29:21.591Z,101911.64
2018-09-09T06:31:49.913Z,101920.39
2018-09-09T06:34:18.189Z,101916.73
2018-09-09T06:36:46.512Z,101921.67
2018-09-09T06:39:14.793Z,101918.94
2018-09-09T06:41:43.105Z,101917.60
2018-09-09T06:44:11.469Z,101917.33
2018-09-09T06:46:39.784Z,101912.86
2018-09-09T06:49:08.393Z,101913.50
2018-09-09T06:51:36.681Z,101914.95
2018-09-09T06:54:04.989Z,101918.14
2018-09-09T06:56:33.554Z,101919.94
2018-09-09T06:59:02.113Z,101919.13
2018-09-09T07:01:30.737Z,101920.36
2018-09-09T07:04:02.235Z,101917.74
2018-09-09T07:06:30.534Z,101921.84
2018-09-09T07:08:58.791Z,101922.66
2018-09-09T07:11:27.225Z,101928.73
2018-09-09T07:13:55.409Z,101923.39
2018-09-09T07:16:23.732Z,101935.47
2018-09-09T07:18:52.029Z,101933.51
2018-09-09T07:21:20.310Z,101932.81
2018-09-09T07:23:48.620Z,101931.67
2018-09-09T07:26:17.945Z,101930.92
2018-09-09T07:28:46.273Z,101936.80
2018-09-09T07:31:14.615Z,101933.52
2018-09-09T07:33:42.881Z,101926.59
2018-09-09T07:36:12.248Z,101923.05
2018-09-09T07:38:40.548Z,101914.41
2018-09-09T07:41:08.817Z,101917.86
2018-09-09T07:43:37.104Z,101923.74
2018-09-09T07:46:05.385Z,101925.17
2018-09-09T07:48:33.718Z,101926.75
2018-09-09T07:51:02.007Z,101927.66
2018-09-09T07:53:30.413Z,101932.13
2018-09-09T07:55:58.718Z,101940.14
2018-09-09T07:58:27.078Z,101936.86
2018-09-09T08:00:55.353Z,101940.78
2018-09-09T08:03:23.698Z,101948.77
2018-09-09T08:05:52.014Z,101946.13
2018-09-09T08:08:20.286Z,101942.73
2018-09-09T08:10:48.661Z,101942.70
2018-09-09T08:13:16.959Z,101946.47
2018-09-09T08:15:45.270Z,101947.67
2018-09-09T08:18:13.559Z,101947.23
2018-09-09T08:20:41.845Z,101944.16
2018-09-09T08:23:10.233Z,101947.15
2018-09-09T08:25:38.538Z,101945.14
2018-09-09T08:28:06.866Z,101950.14
2018-09-09T08:30:35.192Z,101951.14
2018-09-09T08:33:03.463Z,101955.64
2018-09-09T08:35:31.785Z,101955.82
2018-09-09T08:38:00.062Z,101951.80
2018-09-09T08:40:28.374Z,101958.31
2018-09-09T08:42:56.706Z,101949.34
2018-09-09T08:45:25.065Z,101949.73
2018-09-09T08:47:53.313Z,101950.52
2018-09-09T08:50:22.638Z,101948.69
2018-09-09T08:52:50.930Z,101953.67
2018-09-09T08:55:20.357Z,101952.39
2018-09-09T08:57:48.655Z,101943.16
2018-09-09T09:00:16.985Z,101947.96
2018-09-09T09:02:45.285Z,101954.73
2018-09-09T09:05:13.580Z,101952.06
2018-09-09T09:07:43.055Z,101963.09
2018-09-09T09:10:11.264Z,101958.20
2018-09-09T09:12:39.579Z,101952.06
2018-09-09T09:15:07.885Z,101952.39
2018-09-09T09:17:36.209Z,101957.59
2018-09-09T09:20:04.576Z,101945.37
2018-09-09T09:22:32.897Z,101958.63
2018-09-09T09:25:01.177Z,101959.76
2018-09-09T09:27:29.482Z,101953.97
2018-09-09T09:29:58.720Z,101947.08
2018-09-09T09:32:27.058Z,101948.32
2018-09-09T09:34:56.198Z,101951.56
2018-09-09T09:37:25.513Z,101955.27
2018-09-09T09:39:54.805Z,101956.63
2018-09-09T09:42:23.548Z,101955.59
2018-09-09T09:44:51.860Z,101950.67
2018-09-09T09:47:20.157Z,101948.97
2018-09-09T09:49:48.414Z,101954.69
2018-09-09T09:52:16.743Z,101953.74
2018-09-09T09:54:45.033Z,101963.84
2018-09-09T09:57:14.401Z,101963.84
2018-09-09T09:59:42.694Z,101965.93
2018-09-09T10:02:10.991Z,101968.67
2018-09-09T10:04:39.306Z,101954.89
2018-09-09T10:07:07.593Z,101959.34
2018-09-09T10:09:35.985Z,101969.21
2018-09-09T10:12:04.303Z,101961.25
2018-09-09T10:14:33.660Z,101953.27
2018-09-09T10:17:02.112Z,101958.06
2018-09-09T10:19:30.424Z,101967.42
2018-09-09T10:22:01.160Z,101959.27
2018-09-09T10:24:29.580Z,101958.06
2018-09-09T10:26:57.849Z,101952.13
2018-09-09T10:29:26.133Z,101966.08
2018-09-09T10:31:54.432Z,101968.55
2018-09-09T10:34:22.767Z,101960.61
2018-09-09T10:36:51.050Z,101963.58
2018-09-09T10:39:19.342Z,101957.27
2018-09-09T10:41:47.617Z,101957.72
2018-09-09T10:44:16.943Z,101964.23
2018-09-09T10:46:46.395Z,101970.55
2018-09-09T10:49:16.681Z,101972.06
2018-09-09T10:51:44.961Z,101969.89
2018-09-09T10:54:13.233Z,101964.45
2018-09-09T10:56:41.541Z,101968.41
2018-09-09T10:59:09.817Z,101970.15
2018-09-09T11:01:38.156Z,101967.06
2018-09-09T11:04:06.432Z,101969.17
2018-09-09T11:06:34.811Z,101971.06
2018-09-09T11:09:03.417Z,101986.72
2018-09-09T11:11:32.776Z,101988.34
2018-09-09T11:14:01.033Z,101982.02
2018-09-09T11:16:29.355Z,101982.20
2018-09-09T11:18:57.636Z,101988.47
2018-09-09T11:21:25.978Z,101980.64
2018-09-09T11:23:54.237Z,101987.77
2018-09-09T11:26:22.524Z,101976.55
2018-09-09T11:28:50.881Z,101971.98
2018-09-09T11:31:19.169Z,101983.56
2018-09-09T11:33:47.577Z,101981.65
2018-09-09T11:36:16.487Z,101986.01
2018-09-09T11:38:45.185Z,101981.52
2018-09-09T11:41:14.515Z,101985.83
2018-09-09T11:43:42.797Z,101984.97
2018-09-09T11:46:11.065Z,101982.24
2018-09-09T11:48:39.433Z,101983.44
2018-09-09T11:51:07.718Z,101986.89
2018-09-09T11:53:36.014Z,101984.68
2018-09-09T11:56:04.322Z,101984.59
2018-09-09T11:58:32.627Z,101994.55
2018-09-09T12:01:03.051Z,101986.81
2018-09-09T12:03:31.406Z,101986.59
2018-09-09T12:05:59.693Z,101999.78
2018-09-09T12:08:28.105Z,101986.81
2018-09-09T12:10:57.441Z,101998.81
2018-09-09T12:13:25.761Z,101994.61
2018-09-09T12:15:54.049Z,101993.85
2018-09-09T12:18:22.421Z,101990.50
2018-09-09T12:20:50.705Z,101990.78
2018-09-09T12:23:19.074Z,101984.61
2018-09-09T12:25:47.322Z,101986.57
2018-09-09T12:28:15.605Z,101981.55
2018-09-09T12:30:43.917Z,101986.36
2018-09-09T12:33:12.529Z,101977.28
2018-09-09T12:35:40.793Z,101976.94
2018-09-09T12:38:09.056Z,101971.19
2018-09-09T12:40:37.415Z,101967.48
2018-09-09T12:43:11.046Z,101969.57
2018-09-09T12:45:44.786Z,101976.59
2018-09-09T12:48:18.457Z,101972.60
2018-09-09T12:50:46.741Z,101973.75
2018-09-09T12:53:16.044Z,101970.89
2018-09-09T12:55:44.365Z,101972.72
2018-09-09T12:58:12.664Z,101968.92
2018-09-09T13:00:41.081Z,101981.43
2018-09-09T13:03:09.441Z,101985.47
2018-09-09T13:05:37.845Z,101978.78
2018-09-09T13:08:06.422Z,101978.64
2018-09-09T13:10:34.941Z,101978.48
2018-09-09T13:13:08.327Z,101977.44
2018-09-09T13:15:36.787Z,101981.00
2018-09-09T13:18:06.312Z,101967.58
2018-09-09T13:20:35.629Z,101976.06
2018-09-09T13:23:03.909Z,101980.51
2018-09-09T13:25:32.233Z,101966.60
2018-09-09T13:28:00.521Z,101970.42
2018-09-09T13:30:29.841Z,101969.76
2018-09-09T13:32:58.137Z,101975.86
2018-09-09T13:35:26.426Z,101977.22
2018-09-09T13:37:54.722Z,101981.47
2018-09-09T13:40:23.072Z,101979.23
2018-09-09T13:42:51.375Z,101973.28
2018-09-09T13:45:19.670Z,101978.68
2018-09-09T13:47:48.003Z,101980.00
2018-09-09T13:50:16.286Z,101988.19
2018-09-09T13:52:45.589Z,101983.31
2018-09-09T13:55:13.861Z,101982.21
2018-09-09T13:57:42.241Z,101979.66
2018-09-09T14:03:42.348Z,101988.75
2018-09-09T14:06:10.702Z,101990.31
2018-09-09T14:08:38.980Z,101995.46
2018-09-09T14:11:07.361Z,101992.45
2018-09-09T14:13:35.661Z,101991.17
2018-09-09T14:16:03.926Z,101997.50
2018-09-09T14:18:32.243Z,101995.77
2018-09-09T14:21:00.493Z,101996.00
2018-09-09T14:23:28.826Z,101991.95
2018-09-09T14:25:57.118Z,101994.83
2018-09-09T14:28:25.409Z,101987.51
2018-09-09T14:30:53.669Z,102000.41
2018-09-09T14:33:21.973Z,101996.51
2018-09-09T14:35:52.281Z,101996.59
2018-09-09T14:38:20.637Z,102003.27
2018-09-09T14:40:48.913Z,101998.14
2018-09-09T14:43:17.231Z,101999.97
2018-09-09T14:45:45.497Z,102001.17
2018-09-09T14:48:13.840Z,102002.74
2018-09-09T14:50:42.122Z,102005.06
2018-09-09T14:53:10.603Z,102015.27
2018-09-09T14:55:38.817Z,102005.58
2018-09-09T14:58:07.168Z,102007.42
2018-09-09T15:00:35.461Z,102003.73
2018-09-09T15:03:03.826Z,102007.00
2018-09-09T15:05:32.146Z,102009.20
2018-09-09T15:08:00.421Z,102008.56
2018-09-09T15:10:29.813Z,102011.68
2018-09-09T15:12:59.192Z,102005.57
2018-09-09T15:15:27.506Z,102010.09
2018-09-09T15:17:55.789Z,102006.11
2018-09-09T15:20:24.159Z,102018.72
2018-09-09T15:22:52.462Z,102020.06
2018-09-09T15:25:20.761Z,102014.92
2018-09-09T15:27:49.049Z,102017.42
2018-09-09T15:30:17.349Z,102019.03
2018-09-09T15:32:45.614Z,102016.48
2018-09-09T15:35:13.947Z,102005.80
2018-09-09T15:37:43.009Z,102008.75
2018-09-09T15:40:11.477Z,102000.20
2018-09-09T15:42:39.757Z,102005.88
2018-09-09T15:45:08.121Z,102004.70
2018-09-09T15:47:36.389Z,102010.31
2018-09-09T15:50:04.698Z,102005.44
2018-09-09T15:52:33.052Z,102011.02
2018-09-09T15:55:01.316Z,102015.11
2018-09-09T15:57:29.675Z,102020.13
2018-09-09T15:59:57.939Z,102013.23
2018-09-09T16:02:26.260Z,102011.80
2018-09-09T16:04:54.887Z,102008.09
2018-09-09T16:07:23.370Z,102012.87
2018-09-09T16:09:51.493Z,102016.84
2018-09-09T16:12:19.774Z,102013.45
2018-09-09T16:14:48.073Z,102008.87
2018-09-09T16:17:16.393Z,102011.55
2018-09-09T16:19:45.689Z,102009.89
2018-09-09T16:22:14.010Z,102014.09
2018-09-09T16:24:42.315Z,102008.30
2018-09-09T16:27:10.605Z,102010.14
2018-09-09T16:29:38.853Z,102004.09
2018-09-09T16:32:07.136Z,102015.38
2018-09-09T16:34:35.397Z,102014.56
2018-09-09T16:37:03.692Z,102014.38
2018-09-09T16:39:32.054Z,102017.78
2018-09-09T16:42:00.241Z,102016.48
2018-09-09T16:44:28.701Z,102010.54
2018-09-09T16:46:56.967Z,102009.81
2018-09-09T16:49:25.277Z,102010.33
2018-09-09T16:51:53.544Z,102002.13
2018-09-09T16:54:21.818Z,102002.91
2018-09-09T16:56:50.225Z,102007.89
2018-09-09T16:59:18.534Z,102005.12
2018-09-09T17:01:46.857Z,102006.41
2018-09-09T17:04:15.137Z,101996.55
2018-09-09T17:06:43.412Z,101997.20
2018-09-09T17:09:12.281Z,102000.28
2018-09-09T17:11:40.937Z,102001.29
2018-09-09T17:14:09.500Z,102006.20
2018-09-09T17:16:37.901Z,102000.36
2018-09-09T17:19:06.193Z,102004.49
2018-09-09T17:21:34.454Z,101998.50
2018-09-09T17:24:02.754Z,101997.67
2018-09-09T17:26:31.045Z,101995.91
2018-09-09T17:28:59.329Z,101998.36
2018-09-09T17:31:27.609Z,101998.91
2018-09-09T17:33:56.041Z,101995.18
2018-09-09T17:36:24.406Z,101988.88
2018-09-09T17:38:52.761Z,101994.98
2018-09-09T17:41:21.137Z,101988.54
2018-09-09T17:43:49.389Z,101984.20
2018-09-09T17:46:17.689Z,101986.72
2018-09-09T17:48:46.030Z,101995.91
2018-09-09T17:51:14.308Z,101996.72
2018-09-09T17:53:42.569Z,102010.88
2018-09-09T17:56:10.869Z,102012.03
2018-09-09T17:58:39.159Z,102012.87
2018-09-09T18:01:07.473Z,102016.34
2018-09-09T18:03:35.753Z,102014.67
2018-09-09T18:06:04.074Z,102019.66
2018-09-09T18:08:32.374Z,102026.80
2018-09-09T18:11:00.712Z,102025.77
2018-09-09T18:13:28.961Z,102024.94
2018-09-09T18:15:57.321Z,102027.44
2018-09-09T18:18:25.886Z,102024.28
2018-09-09T18:20:54.272Z,102021.89
2018-09-09T18:23:22.521Z,102019.20
2018-09-09T18:25:50.794Z,102023.03
2018-09-09T18:28:19.105Z,102026.85
2018-09-09T18:30:47.454Z,102019.37
2018-09-09T18:33:15.749Z,102027.52
2018-09-09T18:35:44.671Z,102025.69
2018-09-09T18:38:12.977Z,102018.70
2018-09-09T18:40:41.298Z,102021.86
2018-09-09T18:43:09.744Z,102024.69
2018-09-09T18:45:38.163Z,102019.17
2018-09-09T18:48:06.459Z,102017.48
2018-09-09T18:50:34.737Z,102014.28
2018-09-09T18:53:03.020Z,102010.92
2018-09-09T18:55:31.273Z,102011.72
2018-09-09T18:58:00.713Z,102012.55
2018-09-09T19:00:29.177Z,102009.14
2018-09-09T19:02:57.525Z,102013.25
2018-09-09T19:05:25.805Z,102014.53
2018-09-09T19:07:54.097Z,102011.91
2018-09-09T19:10:22.525Z,102013.00
2018-09-09T19:12:50.813Z,102004.31
2018-09-09T19:15:20.215Z,102019.58
2018-09-09T19:17:48.489Z,102020.84
2018-09-09T19:20:16.801Z,102011.67
2018-09-09T19:22:45.069Z,102017.75
2018-09-09T19:25:13.373Z,102012.38
2018-09-09T19:27:41.650Z,102013.36
2018-09-09T19:30:09.974Z,102013.70
2018-09-09T19:32:38.249Z,102012.02
2018-09-09T19:35:06.542Z,102016.36
2018-09-09T19:37:34.850Z,102019.20
2018-09-09T19:40:03.252Z,102018.29
2018-09-09T19:42:35.604Z,102012.95
2018-09-09T19:45:04.951Z,102013.39
2018-09-09T19:47:33.287Z,102018.75
2018-09-09T19:50:02.297Z,102019.55
2018-09-09T19:52:30.598Z,102015.84
2018-09-09T19:54:59.061Z,102019.05
2018-09-09T19:57:27.364Z,102021.16
2018-09-09T19:59:55.915Z,102017.52
2018-09-09T20:02:24.597Z,102016.25
2018-09-09T20:04:53.232Z,102009.06
2018-09-09T20:07:21.492Z,102008.22
2018-09-09T20:09:49.770Z,102006.06
2018-09-09T20:12:18.073Z,102003.91
2018-09-09T20:14:46.714Z,102014.18
2018-09-09T20:17:15.415Z,102008.56
2018-09-09T20:19:43.658Z,102006.80
2018-09-09T20:22:12.585Z,102010.59
2018-09-09T20:24:41.254Z,102012.27
2018-09-09T20:27:09.581Z,102010.26
2018-09-09T20:29:37.893Z,102007.95
2018-09-09T20:32:06.202Z,102005.47
2018-09-09T20:34:34.536Z,102008.47
2018-09-09T20:37:02.862Z,102004.48
2018-09-09T20:39:31.134Z,102000.59
2018-09-09T20:41:59.461Z,102004.31
2018-09-09T20:44:27.793Z,101998.85
2018-09-09T20:46:56.113Z,102007.75
2018-09-09T20:49:24.390Z,102001.31
2018-09-09T20:51:52.694Z,101998.34
2018-09-09T20:54:20.968Z,102000.44
2018-09-09T20:56:49.297Z,102003.45
2018-09-09T20:59:17.581Z,102000.52
2018-09-09T21:01:45.873Z,102000.36
2018-09-09T21:04:14.236Z,101992.95
2018-09-09T21:06:42.525Z,101988.64
2018-09-09T21:09:12.165Z,101984.34
2018-09-09T21:11:40.450Z,101988.22
2018-09-09T21:14:09.221Z,101987.32
2018-09-09T21:16:37.587Z,101984.36
2018-09-09T21:19:06.833Z,101981.20
2018-09-09T21:21:35.666Z,101981.50
2018-09-09T21:24:04.011Z,101978.39
2018-09-09T21:26:32.423Z,101981.91
2018-09-09T21:29:01.149Z,101981.12
2018-09-09T21:31:29.557Z,101986.60
2018-09-09T21:33:57.897Z,101978.14
2018-09-09T21:36:26.317Z,101977.98
2018-09-09T21:38:54.680Z,101975.03
2018-09-09T21:41:22.953Z,101971.27
2018-09-09T21:43:51.259Z,101979.05
2018-09-09T21:46:19.582Z,101976.66
2018-09-09T21:48:47.897Z,101975.71
2018-09-09T21:51:17.201Z,101978.03
2018-09-09T21:53:45.624Z,101975.81
2018-09-09T21:56:13.941Z,101966.50
2018-09-09T21:58:42.293Z,101975.30
2018-09-09T22:01:15.706Z,101977.64
2018-09-09T22:03:45.180Z,101970.06
2018-09-09T22:06:15.653Z,101965.20
2018-09-09T22:08:43.997Z,101966.84
2018-09-09T22:11:12.333Z,101963.64
2018-09-09T22:13:40.658Z,101961.35
2018-09-09T22:16:09.014Z,101960.28
2018-09-09T22:18:37.525Z,101956.06
2018-09-09T22:21:06.033Z,101953.28
2018-09-09T22:23:34.361Z,101952.73
2018-09-09T22:26:03.617Z,101946.20
2018-09-09T22:28:31.919Z,101947.17
2018-09-09T22:31:00.229Z,101945.16
2018-09-09T22:33:28.764Z,101939.13
2018-09-09T22:35:57.066Z,101937.54
2018-09-09T22:38:26.517Z,101934.55
2018-09-09T22:40:54.801Z,101943.19
2018-09-09T22:43:23.057Z,101935.23
2018-09-09T22:45:55.609Z,101941.19
2018-09-09T22:48:23.902Z,101939.98
2018-09-09T22:50:52.864Z,101936.81
2018-09-09T22:53:21.236Z,101937.88
2018-09-09T22:55:49.604Z,101933.56
2018-09-09T22:58:19.389Z,101934.16
2018-09-09T23:00:47.653Z,101931.79
2018-09-09T23:03:16.005Z,101936.73
2018-09-09T23:05:44.281Z,101927.61
2018-09-09T23:08:12.743Z,101928.69
2018-09-09T23:10:41.343Z,101930.02
2018-09-09T23:13:09.677Z,101930.82
2018-09-09T23:15:37.997Z,101926.14
2018-09-09T23:18:06.331Z,101918.06
2018-09-09T23:20:35.617Z,101911.80
2018-09-09T23:23:05.009Z,101910.29
2018-09-09T23:25:33.305Z,101904.46
2018-09-09T23:28:01.656Z,101901.34
2018-09-09T23:30:29.950Z,101898.33
2018-09-09T23:32:58.409Z,101895.43
2018-09-09T23:35:26.683Z,101897.03
2018-09-09T23:37:55.007Z,101897.44
2018-09-09T23:40:23.288Z,101895.77
2018-09-09T23:42:51.605Z,101895.77
2018-09-09T23:45:19.909Z,101898.45
2018-09-09T23:47:48.186Z,101892.96
2018-09-09T23:50:16.501Z,101898.27
2018-09-09T23:52:44.775Z,101896.09
2018-09-09T23:55:13.076Z,101901.34
2018-09-09T23:57:41.347Z,101901.61
